createdAt,value
2018-06-09T00:02:02.111Z,99.90
2018-06-09T00:04:30.509Z,99.90
2018-06-09T00:06:58.999Z,99.90
2018-06-09T00:09:27.997Z,99.90
2018-06-09T00:11:56.517Z,99.90
2018-06-09T00:14:24.929Z,99.90
2018-06-09T00:16:54.383Z,99.90
2018-06-09T00:19:23.037Z,99.90
2018-06-09T00:21:51.457Z,99.90
2018-06-09T00:24:20.654Z,99.90
2018-06-09T00:29:17.565Z,99.90
2018-06-09T00:31:46.341Z,99.90
2018-06-09T00:34:14.949Z,99.90
2018-06-09T00:36:43.368Z,99.90
2018-06-09T00:39:11.852Z,99.90
2018-06-09T00:41:40.444Z,99.90
2018-06-09T00:44:09.088Z,99.90
2018-06-09T00:46:39.889Z,99.90
2018-06-09T00:49:08.729Z,99.90
2018-06-09T00:51:37.905Z,99.90
2018-06-09T00:54:06.381Z,99.90
2018-06-09T00:56:44.446Z,99.90
2018-06-09T00:59:13.123Z,99.90
2018-06-09T01:01:41.636Z,99.90
2018-06-09T01:04:10.922Z,99.90
2018-06-09T01:06:39.424Z,99.90
2018-06-09T01:09:08.917Z,99.90
2018-06-09T01:11:37.392Z,99.90
2018-06-09T01:14:05.975Z,99.90
2018-06-09T01:16:34.741Z,99.90
2018-06-09T01:19:03.161Z,99.90
2018-06-09T01:21:31.625Z,99.90
2018-06-09T01:24:00.785Z,99.90
2018-06-09T01:26:29.369Z,99.90
2018-06-09T01:28:57.833Z,99.90
2018-06-09T01:31:26.241Z,99.90
2018-06-09T01:33:54.667Z,99.90
2018-06-09T01:36:23.688Z,99.90
2018-06-09T01:38:52.121Z,99.90
2018-06-09T01:41:20.889Z,99.90
2018-06-09T01:43:49.672Z,99.90
2018-06-09T01:46:18.524Z,99.90
2018-06-09T01:48:47.035Z,99.90
2018-06-09T01:51:16.493Z,99.90
2018-06-09T01:53:45.248Z,99.90
2018-06-09T01:56:13.673Z,99.90
2018-06-09T01:58:42.108Z,99.90
2018-06-09T02:03:40.776Z,99.90
2018-06-09T02:06:09.818Z,99.90
2018-06-09T02:08:38.252Z,99.90
2018-06-09T02:11:06.711Z,99.90
2018-06-09T02:13:35.161Z,99.90
2018-06-09T02:16:03.651Z,99.90
2018-06-09T02:18:32.481Z,99.90
2018-06-09T02:21:01.141Z,99.90
2018-06-09T02:23:29.945Z,99.90
2018-06-09T02:25:58.352Z,99.90
2018-06-09T02:30:55.544Z,99.90
2018-06-09T02:33:24.419Z,99.90
2018-06-09T02:35:53.401Z,99.90
2018-06-09T02:38:24.115Z,99.90
2018-06-09T02:40:52.569Z,99.90
2018-06-09T02:43:21.200Z,99.90
2018-06-09T02:45:49.619Z,99.90
2018-06-09T02:48:18.192Z,99.90
2018-06-09T02:50:46.596Z,99.90
2018-06-09T02:53:15.050Z,99.90
2018-06-09T02:55:44.098Z,99.90
2018-06-09T02:58:13.329Z,99.90
2018-06-09T03:00:41.761Z,99.90
2018-06-09T03:03:10.199Z,99.90
2018-06-09T03:05:39.289Z,99.90
2018-06-09T03:08:07.745Z,99.90
2018-06-09T03:10:36.563Z,99.90
2018-06-09T03:13:05.195Z,99.90
2018-06-09T03:15:33.953Z,99.90
2018-06-09T03:18:02.414Z,99.90
2018-06-09T03:20:31.455Z,99.90
2018-06-09T03:22:59.917Z,99.90
2018-06-09T03:25:29.185Z,99.90
2018-06-09T03:27:57.873Z,99.90
2018-06-09T03:30:26.317Z,99.90
2018-06-09T03:32:54.758Z,99.90
2018-06-09T03:35:23.317Z,99.90
2018-06-09T03:37:51.972Z,99.90
2018-06-09T03:40:20.529Z,99.90
2018-06-09T03:42:49.968Z,99.90
2018-06-09T03:45:19.337Z,99.90
2018-06-09T03:47:48.111Z,99.90
2018-06-09T03:50:16.941Z,99.90
2018-06-09T03:52:45.365Z,99.90
2018-06-09T03:55:14.116Z,99.90
2018-06-09T03:57:42.848Z,99.90
2018-06-09T04:00:11.649Z,99.90
2018-06-09T04:02:40.065Z,99.90
2018-06-09T04:05:09.005Z,99.90
2018-06-09T04:07:38.249Z,99.90
2018-06-09T04:10:07.405Z,99.90
2018-06-09T04:12:36.274Z,99.90
2018-06-09T04:15:04.960Z,99.90
2018-06-09T04:17:33.708Z,99.90
2018-06-09T04:20:02.162Z,99.90
2018-06-09T04:22:30.820Z,99.90
2018-06-09T04:24:59.264Z,99.90
2018-06-09T04:27:27.954Z,99.90
2018-06-09T04:29:56.807Z,99.90
2018-06-09T04:32:26.206Z,99.90
2018-06-09T04:34:54.936Z,99.90
2018-06-09T04:37:23.378Z,99.90
2018-06-09T04:39:52.278Z,99.90
2018-06-09T04:42:21.747Z,99.90
2018-06-09T04:44:50.814Z,99.90
2018-06-09T04:47:19.608Z,99.90
2018-06-09T04:49:48.614Z,99.90
2018-06-09T04:54:46.318Z,99.90
2018-06-09T04:57:15.297Z,99.90
2018-06-09T04:59:43.759Z,99.90
2018-06-09T05:02:12.248Z,99.90
2018-06-09T05:04:41.009Z,99.90
2018-06-09T05:07:09.671Z,99.90
2018-06-09T05:09:38.053Z,99.90
2018-06-09T05:12:06.524Z,99.90
2018-06-09T05:14:34.960Z,99.90
2018-06-09T05:17:04.017Z,99.90
2018-06-09T05:19:33.216Z,99.90
2018-06-09T05:22:01.765Z,99.90
2018-06-09T05:24:31.072Z,99.90
2018-06-09T05:26:59.493Z,99.90
2018-06-09T05:29:28.185Z,99.90
2018-06-09T05:31:56.604Z,99.90
2018-06-09T05:34:25.057Z,99.90
2018-06-09T05:36:53.502Z,99.90
2018-06-09T05:39:22.028Z,99.90
2018-06-09T05:41:50.935Z,99.90
2018-06-09T05:44:19.356Z,99.90
2018-06-09T05:46:47.857Z,99.90
2018-06-09T05:49:17.245Z,99.70
2018-06-09T05:51:47.444Z,99.30
2018-06-09T05:54:16.186Z,99.10
2018-06-09T05:56:44.965Z,98.90
2018-06-09T05:59:13.366Z,98.30
2018-06-09T06:01:42.767Z,98.50
2018-06-09T06:04:11.488Z,98.30
2018-06-09T06:06:40.032Z,98.40
2018-06-09T06:09:08.924Z,98.20
2018-06-09T06:11:37.681Z,97.70
2018-06-09T06:14:06.680Z,97.10
2018-06-09T06:16:35.179Z,96.50
2018-06-09T06:19:03.841Z,95.50
2018-06-09T06:21:32.280Z,95.10
2018-06-09T06:24:00.708Z,95.00
2018-06-09T06:26:29.587Z,94.60
2018-06-09T06:29:00.390Z,94.30
2018-06-09T06:31:29.124Z,93.40
2018-06-09T06:33:57.590Z,93.10
2018-06-09T06:36:26.005Z,92.50
2018-06-09T06:51:59.900Z,91.90
2018-06-09T06:54:28.651Z,89.00
2018-06-09T06:56:57.272Z,84.30
2018-06-09T06:59:25.721Z,81.10
2018-06-09T07:01:54.452Z,77.30
2018-06-09T07:06:51.037Z,69.00
2018-06-09T07:09:20.796Z,65.10
2018-06-09T07:11:49.516Z,63.00
2018-06-09T07:14:18.006Z,59.20
2018-06-09T07:16:46.449Z,58.00
2018-06-09T07:19:15.210Z,55.50
2018-06-09T07:21:44.805Z,54.70
2018-06-09T07:24:13.565Z,53.80
2018-06-09T07:26:41.993Z,53.80
2018-06-09T07:29:10.430Z,52.60
2018-06-09T07:31:39.806Z,51.50
2018-06-09T07:34:08.470Z,49.60
2018-06-09T07:36:37.787Z,47.70
2018-06-09T07:39:08.161Z,45.70
2018-06-09T07:41:36.972Z,44.30
2018-06-09T07:44:05.660Z,43.00
2018-06-09T07:46:34.583Z,43.30
2018-06-09T07:49:03.472Z,43.40
2018-06-09T07:51:31.965Z,44.10
2018-06-09T07:54:00.447Z,44.50
2018-06-09T07:56:28.918Z,43.30
2018-06-09T07:58:57.414Z,43.00
2018-06-09T08:01:27.138Z,43.30
2018-06-09T08:03:55.998Z,42.60
2018-06-09T08:06:24.411Z,41.80
2018-06-09T08:08:53.611Z,40.60
2018-06-09T08:11:23.173Z,39.90
2018-06-09T08:13:51.968Z,39.70
2018-06-09T08:16:20.398Z,39.50
2018-06-09T08:18:49.572Z,38.90
2018-06-09T08:21:18.042Z,37.30
2018-06-09T08:23:46.576Z,36.70
2018-06-09T08:26:16.839Z,35.40
2018-06-09T08:28:45.325Z,34.30
2018-06-09T08:31:14.277Z,33.70
2018-06-09T08:33:43.090Z,33.70
2018-06-09T08:36:12.509Z,33.40
2018-06-09T08:38:40.957Z,32.20
2018-06-09T08:41:09.712Z,32.00
2018-06-09T08:43:38.144Z,31.90
2018-06-09T08:46:07.138Z,31.50
2018-06-09T08:48:35.663Z,31.10
2018-06-09T08:51:04.210Z,30.40
2018-06-09T08:53:32.661Z,30.00
2018-06-09T08:56:02.192Z,29.30
2018-06-09T08:58:31.142Z,29.20
2018-06-09T09:00:59.658Z,28.90
2018-06-09T09:03:28.959Z,28.60
2018-06-09T09:05:58.302Z,27.50
2018-06-09T09:08:28.167Z,27.40
2018-06-09T09:10:57.355Z,27.40
2018-06-09T09:13:25.869Z,26.50
2018-06-09T09:15:54.789Z,25.70
2018-06-09T09:18:23.297Z,25.10
2018-06-09T09:20:52.099Z,25.00
2018-06-09T09:23:20.628Z,25.70
2018-06-09T09:25:49.478Z,26.40
2018-06-09T09:28:18.327Z,26.60
2018-06-09T09:30:47.325Z,26.20
2018-06-09T09:33:16.107Z,25.30
2018-06-09T09:35:44.897Z,24.80
2018-06-09T09:38:13.676Z,24.20
2018-06-09T09:40:42.837Z,24.60
2018-06-09T09:43:11.384Z,24.20
2018-06-09T09:45:39.936Z,24.20
2018-06-09T09:48:09.177Z,23.70
2018-06-09T09:50:39.278Z,22.80
2018-06-09T09:53:07.778Z,22.90
2018-06-09T10:05:21.380Z,23.50
2018-06-09T10:07:50.866Z,24.60
2018-06-09T10:10:19.385Z,24.20
2018-06-09T10:12:47.832Z,24.30
2018-06-09T10:15:16.820Z,24.30
2018-06-09T10:17:45.305Z,23.50
2018-06-09T10:20:14.099Z,24.10
2018-06-09T10:22:42.960Z,24.70
2018-06-09T10:25:12.496Z,24.00
2018-06-09T10:27:41.904Z,24.20
2018-06-09T10:30:11.761Z,23.50
2018-06-09T10:32:40.769Z,23.90
2018-06-09T10:35:09.192Z,23.70
2018-06-09T10:40:06.489Z,23.80
2018-06-09T10:42:35.476Z,24.00
2018-06-09T10:45:05.437Z,24.30
2018-06-09T10:47:34.388Z,24.10
2018-06-09T10:50:02.869Z,26.10
2018-06-09T10:52:31.324Z,27.00
2018-06-09T10:54:59.729Z,27.30
2018-06-09T10:57:28.573Z,27.80
2018-06-09T10:59:57.268Z,27.20
2018-06-09T11:02:25.692Z,27.60
2018-06-09T11:04:54.199Z,28.30
2018-06-09T11:07:22.947Z,28.00
2018-06-09T11:09:51.433Z,29.90
2018-06-09T11:12:19.911Z,29.60
2018-06-09T11:14:48.361Z,31.30
2018-06-09T11:17:17.048Z,32.70
2018-06-09T11:19:45.928Z,33.00
2018-06-09T11:22:14.469Z,34.30
2018-06-09T11:24:43.419Z,35.10
2018-06-09T11:27:12.308Z,36.50
2018-06-09T11:29:40.741Z,37.00
2018-06-09T11:32:09.539Z,36.20
2018-06-09T11:34:39.384Z,36.90
2018-06-09T11:37:08.247Z,38.00
2018-06-09T11:39:36.712Z,38.50
2018-06-09T11:44:34.446Z,39.10
2018-06-09T11:47:04.855Z,39.60
2018-06-09T11:49:33.716Z,40.80
2018-06-09T11:52:02.852Z,40.70
2018-06-09T11:54:31.345Z,39.80
2018-06-09T11:56:59.808Z,39.70
2018-06-09T11:59:28.836Z,40.60
2018-06-09T12:01:57.585Z,40.30
2018-06-09T12:04:26.896Z,40.80
2018-06-09T12:06:55.413Z,41.10
2018-06-09T12:09:23.827Z,42.80
2018-06-09T12:11:52.628Z,43.90
2018-06-09T12:14:21.896Z,42.90
2018-06-09T12:16:50.386Z,43.40
2018-06-09T12:19:19.396Z,43.80
2018-06-09T12:21:48.571Z,44.50
2018-06-09T12:24:17.541Z,42.90
2018-06-09T12:26:45.964Z,42.60
2018-06-09T12:29:15.796Z,42.20
2018-06-09T12:31:44.886Z,42.00
2018-06-09T12:34:13.413Z,42.60
2018-06-09T12:36:42.823Z,42.50
2018-06-09T12:39:12.248Z,42.80
2018-06-09T12:41:41.157Z,42.70
2018-06-09T12:44:10.221Z,42.60
2018-06-09T12:46:38.987Z,42.20
2018-06-09T12:49:07.433Z,42.60
2018-06-09T12:51:36.713Z,43.20
2018-06-09T12:54:06.025Z,42.80
2018-06-09T12:56:34.877Z,42.60
2018-06-09T12:59:03.539Z,42.80
2018-06-09T13:01:32.028Z,42.40
2018-06-09T13:04:00.862Z,42.50
2018-06-09T13:06:29.837Z,41.80
2018-06-09T13:08:58.629Z,42.30
2018-06-09T13:11:27.175Z,42.10
2018-06-09T13:13:56.360Z,42.50
2018-06-09T13:16:24.787Z,42.20
2018-06-09T13:18:53.464Z,40.90
2018-06-09T13:21:22.168Z,40.60
2018-06-09T13:23:51.123Z,40.00
2018-06-09T13:26:19.524Z,40.40
2018-06-09T13:28:48.394Z,39.20
2018-06-09T13:31:17.157Z,39.70
2018-06-09T13:33:45.868Z,40.20
2018-06-09T13:36:14.286Z,41.30
2018-06-09T13:38:43.156Z,40.70
2018-06-09T13:41:14.125Z,41.60
2018-06-09T13:43:43.027Z,42.00
2018-06-09T13:46:11.914Z,42.90
2018-06-09T13:48:41.709Z,42.60
2018-06-09T13:51:10.175Z,42.20
2018-06-09T13:53:39.456Z,42.10
2018-06-09T13:56:07.876Z,40.80
2018-06-09T13:58:36.305Z,41.70
2018-06-09T14:01:05.070Z,41.10
2018-06-09T14:03:34.213Z,42.10
2018-06-09T14:06:02.832Z,41.90
2018-06-09T14:08:31.313Z,42.00
2018-06-09T14:10:59.763Z,42.20
2018-06-09T14:13:28.201Z,42.90
2018-06-09T14:15:57.496Z,42.90
2018-06-09T14:18:26.350Z,42.50
2018-06-09T14:20:56.704Z,43.40
2018-06-09T14:23:25.174Z,42.80
2018-06-09T14:25:53.566Z,43.40
2018-06-09T14:28:22.058Z,44.00
2018-06-09T14:30:50.673Z,43.60
2018-06-09T14:33:19.119Z,43.70
2018-06-09T14:35:48.201Z,44.10
2018-06-09T14:38:16.736Z,43.40
2018-06-09T14:40:45.646Z,43.60
2018-06-09T14:43:14.407Z,43.70
2018-06-09T14:45:43.182Z,43.00
2018-06-09T14:48:11.645Z,43.40
2018-06-09T14:50:40.459Z,44.80
2018-06-09T15:02:59.462Z,44.40
2018-06-09T15:05:27.971Z,43.60
2018-06-09T15:07:56.513Z,43.80
2018-06-09T15:12:53.118Z,44.20
2018-06-09T15:15:21.757Z,44.50
2018-06-09T15:17:50.402Z,44.60
2018-06-09T15:20:19.183Z,44.20
2018-06-09T15:22:47.683Z,43.30
2018-06-09T15:25:16.846Z,43.70
2018-06-09T15:30:13.865Z,44.70
2018-06-09T15:32:43.125Z,44.10
2018-06-09T15:35:12.963Z,44.50
2018-06-09T15:37:41.463Z,44.20
2018-06-09T15:40:10.229Z,44.90
2018-06-09T15:42:38.812Z,45.20
2018-06-09T15:45:07.558Z,44.40
2018-06-09T15:47:36.313Z,44.30
2018-06-09T15:50:05.066Z,45.30
2018-06-09T15:52:33.928Z,45.10
2018-06-09T15:55:02.452Z,44.30
2018-06-09T15:57:31.452Z,43.50
2018-06-09T16:00:00.278Z,44.30
2018-06-09T16:02:29.496Z,44.50
2018-06-09T16:04:58.325Z,44.70
2018-06-09T16:07:27.519Z,44.70
2018-06-09T16:09:57.345Z,45.20
2018-06-09T16:12:27.088Z,44.60
2018-06-09T16:14:56.512Z,45.00
2018-06-09T16:17:24.930Z,44.60
2018-06-09T16:19:53.903Z,44.30
2018-06-09T16:22:22.449Z,44.40
2018-06-09T16:24:51.247Z,44.80
2018-06-09T16:27:20.125Z,45.00
2018-06-09T16:29:48.586Z,45.20
2018-06-09T16:32:17.060Z,44.40
2018-06-09T16:34:46.195Z,44.90
2018-06-09T16:37:15.604Z,45.80
2018-06-09T16:39:45.281Z,46.00
2018-06-09T16:42:14.271Z,46.30
2018-06-09T16:44:42.728Z,46.50
2018-06-09T16:47:11.549Z,46.60
2018-06-09T16:49:40.582Z,47.40
2018-06-09T16:52:09.421Z,47.10
2018-06-09T16:54:38.208Z,47.70
2018-06-09T16:57:06.666Z,48.00
2018-06-09T16:59:36.924Z,48.20
2018-06-09T17:02:06.218Z,48.20
2018-06-09T17:04:34.644Z,48.30
2018-06-09T17:07:04.092Z,48.60
2018-06-09T17:09:32.585Z,48.80
2018-06-09T17:12:01.769Z,48.00
2018-06-09T17:14:30.313Z,48.10
2018-06-09T17:16:58.816Z,48.10
2018-06-09T17:19:29.416Z,48.50
2018-06-09T17:21:59.878Z,49.00
2018-06-09T17:24:28.851Z,49.90
2018-06-09T17:26:58.017Z,50.30
2018-06-09T17:29:26.665Z,50.30
2018-06-09T17:31:56.008Z,50.50
2018-06-09T17:34:24.745Z,50.50
2018-06-09T17:36:53.838Z,51.10
2018-06-09T17:39:22.732Z,51.30
2018-06-09T17:41:51.492Z,51.70
2018-06-09T17:44:20.506Z,51.70
2018-06-09T17:46:49.960Z,51.70
2018-06-09T17:49:19.064Z,51.90
2018-06-09T17:51:47.509Z,52.80
2018-06-09T17:54:16.025Z,53.00
2018-06-09T17:56:44.825Z,53.20
2018-06-09T17:59:13.647Z,53.20
2018-06-09T18:01:42.312Z,53.90
2018-06-09T18:04:11.805Z,54.20
2018-06-09T18:06:40.527Z,54.80
2018-06-09T18:09:09.481Z,54.90
2018-06-09T18:11:38.853Z,55.20
2018-06-09T18:14:07.962Z,55.70
2018-06-09T18:16:37.179Z,56.10
2018-06-09T18:19:05.984Z,56.70
2018-06-09T18:21:34.499Z,57.10
2018-06-09T18:24:03.165Z,57.50
2018-06-09T18:26:31.645Z,57.50
2018-06-09T18:29:00.504Z,57.90
2018-06-09T18:31:29.924Z,58.10
2018-06-09T18:33:58.934Z,58.40
2018-06-09T18:36:27.689Z,58.50
2018-06-09T18:38:57.083Z,58.80
2018-06-09T18:41:26.150Z,59.10
2018-06-09T18:43:55.798Z,59.30
2018-06-09T18:46:25.101Z,59.40
2018-06-09T18:48:54.270Z,59.30
2018-06-09T18:51:23.137Z,59.60
2018-06-09T18:53:53.206Z,59.90
2018-06-09T18:56:22.492Z,60.40
2018-06-09T18:58:55.029Z,60.50
2018-06-09T19:03:54.898Z,61.00
2018-06-09T19:06:23.641Z,61.20
2018-06-09T19:11:20.620Z,61.40
2018-06-09T19:13:49.634Z,61.80
2018-06-09T19:16:19.041Z,62.10
2018-06-09T19:18:47.516Z,62.60
2018-06-09T19:21:16.292Z,62.90
2018-06-09T19:23:44.821Z,63.10
2018-06-09T19:26:13.305Z,63.30
2018-06-09T19:28:42.392Z,64.20
2018-06-09T19:31:11.131Z,63.90
2018-06-09T19:33:40.067Z,64.40
2018-06-09T19:36:08.810Z,64.50
2018-06-09T19:38:37.508Z,65.10
2018-06-09T19:41:05.981Z,65.90
2018-06-09T19:43:34.572Z,65.10
2018-06-09T19:46:03.044Z,65.10
2018-06-09T19:48:31.613Z,65.60
2018-06-09T19:51:00.101Z,65.70
2018-06-09T19:53:28.570Z,66.10
2018-06-09T19:55:57.007Z,66.50
2018-06-09T19:58:25.462Z,66.40
2018-06-09T20:00:53.925Z,66.60
2018-06-09T20:03:22.481Z,66.90
2018-06-09T20:05:51.518Z,67.20
2018-06-09T20:08:19.994Z,67.50
2018-06-09T20:10:48.424Z,68.10
2018-06-09T20:13:16.976Z,68.80
2018-06-09T20:18:14.619Z,69.30
2018-06-09T20:20:43.026Z,69.50
2018-06-09T20:23:12.924Z,69.90
2018-06-09T20:25:41.832Z,70.40
2018-06-09T20:30:38.569Z,71.20
2018-06-09T20:33:08.080Z,71.60
2018-06-09T20:35:36.538Z,71.90
2018-06-09T20:38:05.057Z,72.30
2018-06-09T20:40:33.568Z,72.40
2018-06-09T20:43:02.484Z,72.60
2018-06-09T20:45:31.033Z,72.70
2018-06-09T20:47:59.819Z,72.70
2018-06-09T20:50:28.630Z,72.50
2018-06-09T20:52:57.416Z,72.50
2018-06-09T20:55:29.430Z,72.50
2018-06-09T20:57:58.344Z,72.60
2018-06-09T21:00:27.312Z,72.50
2018-06-09T21:02:56.089Z,72.70
2018-06-09T21:05:24.529Z,72.80
2018-06-09T21:07:53.482Z,73.00
2018-06-09T21:10:21.917Z,73.30
2018-06-09T21:12:50.383Z,74.00
2018-06-09T21:15:18.843Z,74.60
2018-06-09T21:17:47.524Z,74.80
2018-06-09T21:20:15.961Z,75.20
2018-06-09T21:25:12.797Z,76.30
2018-06-09T21:27:46.689Z,76.30
2018-06-09T21:30:18.068Z,76.30
2018-06-09T21:32:48.146Z,76.90
2018-06-09T21:35:33.240Z,77.00
2018-06-09T21:38:06.949Z,77.20
2018-06-09T21:40:48.919Z,77.70
2018-06-09T21:43:23.481Z,78.40
2018-06-09T21:48:22.465Z,78.10
2018-06-09T21:50:51.323Z,78.40
2018-06-09T21:53:19.808Z,78.50
2018-06-09T21:55:48.296Z,78.90
2018-06-09T21:58:17.013Z,83.20
2018-06-09T22:00:46.202Z,85.10
2018-06-09T22:05:42.810Z,88.20
2018-06-09T22:08:11.689Z,90.60
2018-06-09T22:10:40.476Z,92.30
2018-06-09T22:22:59.313Z,94.10
2018-06-09T22:25:33.506Z,98.70
2018-06-09T22:28:02.546Z,99.80
2018-06-09T22:30:31.284Z,99.90
2018-06-09T22:32:59.859Z,99.90
2018-06-09T22:35:28.301Z,99.90
2018-06-09T22:37:56.783Z,99.40
2018-06-09T22:40:25.728Z,99.90
2018-06-09T22:42:54.582Z,99.90
2018-06-09T22:55:13.172Z,99.90
2018-06-09T23:10:47.156Z,99.90
2018-06-09T23:13:16.229Z,99.90
2018-06-09T23:15:45.340Z,99.90
2018-06-09T23:18:14.006Z,99.90
2018-06-09T23:20:42.439Z,99.90
2018-06-09T23:23:10.861Z,99.90
2018-06-09T23:25:39.326Z,99.90
2018-06-09T23:28:07.830Z,99.90
2018-06-09T23:30:36.635Z,99.90
2018-06-09T23:33:05.073Z,99.90
2018-06-09T23:35:33.497Z,99.90
2018-06-09T23:38:01.973Z,99.90
2018-06-09T23:40:30.390Z,99.90
2018-06-09T23:42:59.500Z,99.90
2018-06-09T23:45:28.239Z,99.90
2018-06-09T23:47:58.003Z,99.90
2018-06-09T23:50:27.225Z,99.90
2018-06-09T23:52:56.104Z,99.90
2018-06-09T23:55:24.517Z,99.90
2018-06-09T23:57:52.935Z,99.90
